createdAt,value
2019-02-23T00:02:02.570Z,100.00
2019-02-23T00:04:32.972Z,100.00
2019-02-23T00:07:03.833Z,100.00
2019-02-23T00:09:33.535Z,100.00
2019-02-23T00:12:04.662Z,100.00
2019-02-23T00:14:34.664Z,100.00
2019-02-23T00:17:04.133Z,100.00
2019-02-23T00:19:33.789Z,100.00
2019-02-23T00:22:04.463Z,100.00
2019-02-23T00:24:34.039Z,100.00
2019-02-23T00:27:04.356Z,100.00
2019-02-23T00:29:34.647Z,100.00
2019-02-23T00:32:04.529Z,100.00
2019-02-23T00:34:33.996Z,100.00
2019-02-23T00:37:04.358Z,100.00
2019-02-23T00:39:33.815Z,100.00
2019-02-23T00:42:03.714Z,100.00
2019-02-23T00:44:33.226Z,100.00
2019-02-23T00:47:02.788Z,100.00
2019-02-23T00:49:36.253Z,100.00
2019-02-23T00:52:03.721Z,100.00
2019-02-23T00:54:34.118Z,100.00
2019-02-23T00:57:03.664Z,100.00
2019-02-23T00:59:33.210Z,100.00
2019-02-23T01:02:05.108Z,100.00
2019-02-23T01:04:35.001Z,100.00
2019-02-23T01:07:04.508Z,100.00
2019-02-23T01:09:34.142Z,100.00
2019-02-23T01:12:03.678Z,100.00
2019-02-23T01:14:33.134Z,100.00
2019-02-23T01:17:02.648Z,100.00
2019-02-23T01:19:32.132Z,100.00
2019-02-23T01:22:01.816Z,100.00
2019-02-23T01:24:33.717Z,100.00
2019-02-23T01:27:03.197Z,100.00
2019-02-23T01:29:36.973Z,100.00
2019-02-23T01:32:06.613Z,100.00
2019-02-23T01:34:36.165Z,100.00
2019-02-23T01:37:06.139Z,100.00
2019-02-23T01:39:35.697Z,100.00
2019-02-23T01:42:05.374Z,100.00
2019-02-23T01:44:34.846Z,100.00
2019-02-23T01:47:04.804Z,100.00
2019-02-23T01:49:36.664Z,100.00
2019-02-23T01:52:06.566Z,100.00
2019-02-23T01:54:36.096Z,100.00
2019-02-23T01:57:05.738Z,100.00
2019-02-23T01:59:35.357Z,100.00
2019-02-23T02:02:04.830Z,100.00
2019-02-23T02:04:34.616Z,100.00
2019-02-23T02:07:04.136Z,100.00
2019-02-23T02:09:34.116Z,100.00
2019-02-23T02:12:04.284Z,100.00
2019-02-23T02:14:34.626Z,100.00
2019-02-23T02:17:05.464Z,100.00
2019-02-23T02:19:35.641Z,100.00
2019-02-23T02:22:05.117Z,100.00
2019-02-23T02:24:38.838Z,100.00
2019-02-23T02:27:08.699Z,100.00
2019-02-23T02:29:38.141Z,100.00
2019-02-23T02:32:07.752Z,100.00
2019-02-23T02:34:37.182Z,100.00
2019-02-23T02:37:06.856Z,100.00
2019-02-23T02:39:36.465Z,100.00
2019-02-23T02:42:05.977Z,100.00
2019-02-23T02:44:35.564Z,100.00
2019-02-23T02:47:05.024Z,100.00
2019-02-23T02:49:34.516Z,100.00
2019-02-23T02:52:04.081Z,100.00
2019-02-23T02:54:34.399Z,100.00
2019-02-23T02:57:03.920Z,100.00
2019-02-23T02:59:34.303Z,100.00
2019-02-23T03:02:04.084Z,100.00
2019-02-23T03:04:33.562Z,100.00
2019-02-23T03:07:03.023Z,100.00
2019-02-23T03:09:32.703Z,100.00
2019-02-23T03:12:03.023Z,100.00
2019-02-23T03:14:32.631Z,100.00
2019-02-23T03:17:02.115Z,100.00
2019-02-23T03:19:31.648Z,100.00
2019-02-23T03:22:01.341Z,100.00
2019-02-23T03:24:30.930Z,100.00
2019-02-23T03:27:00.430Z,100.00
2019-02-23T03:29:29.980Z,100.00
2019-02-23T03:31:59.490Z,100.00
2019-02-23T03:34:29.127Z,100.00
2019-02-23T03:36:58.784Z,100.00
2019-02-23T03:39:28.290Z,100.00
2019-02-23T03:41:58.222Z,100.00
2019-02-23T03:44:27.745Z,100.00
2019-02-23T03:46:57.225Z,100.00
2019-02-23T03:49:26.871Z,100.00
2019-02-23T03:51:56.428Z,100.00
2019-02-23T03:54:26.000Z,100.00
2019-02-23T03:56:55.625Z,100.00
2019-02-23T03:59:25.135Z,100.00
2019-02-23T04:01:54.842Z,100.00
2019-02-23T04:04:24.782Z,100.00
2019-02-23T04:06:56.029Z,100.00
2019-02-23T04:09:25.639Z,100.00
2019-02-23T04:11:58.101Z,100.00
2019-02-23T04:14:28.541Z,100.00
2019-02-23T04:16:58.419Z,100.00
2019-02-23T04:19:28.817Z,100.00
2019-02-23T04:21:58.403Z,100.00
2019-02-23T04:24:28.025Z,100.00
2019-02-23T04:26:57.562Z,100.00
2019-02-23T04:29:27.086Z,100.00
2019-02-23T04:31:57.558Z,100.00
2019-02-23T04:34:27.057Z,100.00
2019-02-23T04:36:57.661Z,100.00
2019-02-23T04:39:27.190Z,100.00
2019-02-23T04:41:56.764Z,100.00
2019-02-23T04:44:26.286Z,100.00
2019-02-23T04:46:56.230Z,100.00
2019-02-23T04:49:26.190Z,100.00
2019-02-23T04:51:56.098Z,100.00
2019-02-23T04:54:26.046Z,100.00
2019-02-23T04:56:55.675Z,100.00
2019-02-23T04:59:25.282Z,100.00
2019-02-23T05:01:54.810Z,100.00
2019-02-23T05:04:24.873Z,100.00
2019-02-23T05:06:55.047Z,100.00
2019-02-23T05:09:25.628Z,100.00
2019-02-23T05:11:55.896Z,100.00
2019-02-23T05:14:25.611Z,100.00
2019-02-23T05:16:55.297Z,100.00
2019-02-23T05:19:25.640Z,100.00
2019-02-23T05:21:55.302Z,100.00
2019-02-23T05:24:26.289Z,100.00
2019-02-23T05:26:55.758Z,100.00
2019-02-23T05:29:25.310Z,100.00
2019-02-23T05:31:54.921Z,100.00
2019-02-23T05:34:24.582Z,100.00
2019-02-23T05:36:55.188Z,100.00
2019-02-23T05:39:24.797Z,100.00
2019-02-23T05:41:55.188Z,100.00
2019-02-23T05:44:24.698Z,100.00
2019-02-23T05:46:54.608Z,100.00
2019-02-23T05:49:24.146Z,100.00
2019-02-23T05:51:53.999Z,100.00
2019-02-23T05:54:24.411Z,100.00
2019-02-23T05:56:53.928Z,100.00
2019-02-23T05:59:25.890Z,100.00
2019-02-23T06:01:55.378Z,100.00
2019-02-23T06:04:25.176Z,100.00
2019-02-23T06:06:55.109Z,100.00
2019-02-23T06:09:24.789Z,100.00
2019-02-23T06:11:54.560Z,100.00
2019-02-23T06:14:24.021Z,100.00
2019-02-23T06:16:53.570Z,100.00
2019-02-23T06:19:23.111Z,100.00
2019-02-23T06:21:54.713Z,100.00
2019-02-23T06:24:25.111Z,100.00
2019-02-23T06:26:54.579Z,100.00
2019-02-23T06:29:24.096Z,100.00
2019-02-23T06:31:53.734Z,100.00
2019-02-23T06:34:23.268Z,100.00
2019-02-23T06:36:52.775Z,100.00
2019-02-23T06:39:23.463Z,100.00
2019-02-23T06:41:53.030Z,100.00
2019-02-23T06:44:23.198Z,100.00
2019-02-23T06:46:52.633Z,100.00
2019-02-23T06:49:22.331Z,100.00
2019-02-23T06:51:51.801Z,100.00
2019-02-23T06:54:22.281Z,100.00
2019-02-23T06:56:52.836Z,100.00
2019-02-23T06:59:22.696Z,100.00
2019-02-23T07:01:52.159Z,100.00
2019-02-23T07:04:21.837Z,100.00
2019-02-23T07:06:52.875Z,100.00
2019-02-23T07:09:25.597Z,100.00
2019-02-23T07:11:58.878Z,100.00
2019-02-23T07:14:28.351Z,100.00
2019-02-23T07:16:57.966Z,100.00
2019-02-23T07:19:27.472Z,100.00
2019-02-23T07:21:57.070Z,100.00
2019-02-23T07:24:26.794Z,100.00
2019-02-23T07:26:57.003Z,100.00
2019-02-23T07:29:26.848Z,100.00
2019-02-23T07:31:56.501Z,100.00
2019-02-23T07:34:26.830Z,100.00
2019-02-23T07:36:56.729Z,100.00
2019-02-23T07:39:26.304Z,100.00
2019-02-23T07:41:56.188Z,100.00
2019-02-23T07:44:27.564Z,100.00
2019-02-23T07:46:57.990Z,100.00
2019-02-23T07:49:27.554Z,100.00
2019-02-23T07:51:58.462Z,100.00
2019-02-23T07:54:28.774Z,100.00
2019-02-23T07:56:58.295Z,100.00
2019-02-23T07:59:27.774Z,100.00
2019-02-23T08:01:57.228Z,100.00
2019-02-23T08:04:28.969Z,100.00
2019-02-23T08:06:59.248Z,100.00
2019-02-23T08:09:29.408Z,100.00
2019-02-23T08:11:58.890Z,100.00
2019-02-23T08:14:28.466Z,100.00
2019-02-23T08:16:57.956Z,100.00
2019-02-23T08:19:27.765Z,100.00
2019-02-23T08:21:57.276Z,100.00
2019-02-23T08:24:26.737Z,100.00
2019-02-23T08:26:56.825Z,100.00
2019-02-23T08:29:28.214Z,100.00
2019-02-23T08:31:58.018Z,100.00
2019-02-23T08:34:27.746Z,100.00
2019-02-23T08:36:57.385Z,100.00
2019-02-23T08:39:26.900Z,100.00
2019-02-23T08:41:56.547Z,100.00
2019-02-23T08:44:26.142Z,100.00
2019-02-23T08:46:55.785Z,100.00
2019-02-23T08:49:25.843Z,100.00
2019-02-23T08:51:55.396Z,100.00
2019-02-23T08:54:24.953Z,100.00
2019-02-23T08:56:55.370Z,100.00
2019-02-23T08:59:25.459Z,100.00
2019-02-23T09:01:54.966Z,100.00
2019-02-23T09:04:25.542Z,100.00
2019-02-23T09:06:55.166Z,100.00
2019-02-23T09:09:24.794Z,100.00
2019-02-23T09:11:54.282Z,100.00
2019-02-23T09:14:23.888Z,100.00
2019-02-23T09:16:54.393Z,100.00
2019-02-23T09:19:23.989Z,100.00
2019-02-23T09:21:53.493Z,100.00
2019-02-23T09:24:23.487Z,100.00
2019-02-23T09:26:53.032Z,100.00
2019-02-23T09:29:22.613Z,100.00
2019-02-23T09:31:53.691Z,100.00
2019-02-23T09:34:23.230Z,100.00
2019-02-23T09:36:52.692Z,100.00
2019-02-23T09:39:22.193Z,100.00
2019-02-23T09:41:51.710Z,100.00
2019-02-23T09:44:21.298Z,100.00
2019-02-23T09:46:50.813Z,100.00
2019-02-23T09:49:20.442Z,100.00
2019-02-23T09:51:50.904Z,100.00
2019-02-23T09:54:21.345Z,100.00
2019-02-23T09:56:50.949Z,100.00
2019-02-23T09:59:20.433Z,100.00
2019-02-23T10:01:50.072Z,100.00
2019-02-23T10:04:19.703Z,100.00
2019-02-23T10:06:49.182Z,100.00
2019-02-23T10:09:18.758Z,100.00
2019-02-23T10:11:48.267Z,100.00
2019-02-23T10:14:17.846Z,100.00
2019-02-23T10:16:47.309Z,100.00
2019-02-23T10:19:17.769Z,100.00
2019-02-23T10:21:47.253Z,100.00
2019-02-23T10:24:16.908Z,99.78
2019-02-23T10:26:46.474Z,99.47
2019-02-23T10:29:15.978Z,99.20
2019-02-23T10:31:45.482Z,96.83
2019-02-23T10:34:14.949Z,98.71
2019-02-23T10:36:44.591Z,98.57
2019-02-23T10:39:14.542Z,96.96
2019-02-23T10:41:44.630Z,97.51
2019-02-23T10:44:14.210Z,96.81
2019-02-23T10:46:43.764Z,96.22
2019-02-23T10:49:13.657Z,95.64
2019-02-23T10:51:43.256Z,95.87
2019-02-23T10:54:12.716Z,94.94
2019-02-23T10:56:42.553Z,94.75
2019-02-23T10:59:12.790Z,94.51
2019-02-23T11:01:42.386Z,94.36
2019-02-23T11:04:12.463Z,92.64
2019-02-23T11:06:42.552Z,93.88
2019-02-23T11:09:16.563Z,92.98
2019-02-23T11:11:48.395Z,92.43
2019-02-23T11:14:18.301Z,91.92
2019-02-23T11:16:47.927Z,91.91
2019-02-23T11:19:18.363Z,90.23
2019-02-23T11:21:47.887Z,90.31
2019-02-23T11:24:18.486Z,90.52
2019-02-23T11:26:48.192Z,90.55
2019-02-23T11:29:18.730Z,89.59
2019-02-23T11:31:48.230Z,89.79
2019-02-23T11:34:18.467Z,89.15
2019-02-23T11:36:48.033Z,88.46
2019-02-23T11:39:17.515Z,88.26
2019-02-23T11:41:47.295Z,86.00
2019-02-23T11:44:16.751Z,86.26
2019-02-23T11:46:59.969Z,87.21
2019-02-23T11:49:17.962Z,86.40
2019-02-23T11:51:47.528Z,85.98
2019-02-23T11:54:17.182Z,84.33
2019-02-23T11:56:46.721Z,81.41
2019-02-23T11:59:16.660Z,83.91
2019-02-23T12:01:46.270Z,83.07
2019-02-23T12:04:16.093Z,81.47
2019-02-23T12:06:45.844Z,79.53
2019-02-23T12:09:15.460Z,80.47
2019-02-23T12:11:45.062Z,81.96
2019-02-23T12:14:14.765Z,79.52
2019-02-23T12:16:44.852Z,79.74
2019-02-23T12:19:14.826Z,78.13
2019-02-23T12:21:44.598Z,79.00
2019-02-23T12:24:14.336Z,78.37
2019-02-23T12:26:43.888Z,78.03
2019-02-23T12:29:13.501Z,77.19
2019-02-23T12:31:43.113Z,76.32
2019-02-23T12:34:12.830Z,74.94
2019-02-23T12:36:42.655Z,74.28
2019-02-23T12:39:12.160Z,73.24
2019-02-23T12:41:42.041Z,72.16
2019-02-23T12:44:11.698Z,71.27
2019-02-23T12:46:41.487Z,70.70
2019-02-23T12:49:11.229Z,69.61
2019-02-23T12:51:40.946Z,67.45
2019-02-23T12:54:16.794Z,65.40
2019-02-23T12:56:42.381Z,65.12
2019-02-23T12:59:12.209Z,64.24
2019-02-23T13:01:41.963Z,64.50
2019-02-23T13:04:11.725Z,63.84
2019-02-23T13:06:41.346Z,63.77
2019-02-23T13:09:18.443Z,63.43
2019-02-23T13:12:34.972Z,62.85
2019-02-23T13:15:15.011Z,62.67
2019-02-23T13:18:19.736Z,61.17
2019-02-23T13:21:20.588Z,61.08
2019-02-23T13:24:28.318Z,60.33
2019-02-23T13:27:18.867Z,60.49
2019-02-23T13:30:37.495Z,60.65
2019-02-23T13:33:46.211Z,59.91
2019-02-23T13:36:48.524Z,59.77
2019-02-23T13:39:26.347Z,59.54
2019-02-23T13:42:28.737Z,59.39
2019-02-23T13:45:33.415Z,59.45
2019-02-23T13:48:45.280Z,58.19
2019-02-23T13:51:37.787Z,58.34
2019-02-23T13:54:40.316Z,56.72
2019-02-23T13:57:53.392Z,56.67
2019-02-23T14:01:09.560Z,58.75
2019-02-23T14:04:23.634Z,56.45
2019-02-23T14:07:06.668Z,51.19
2019-02-23T14:10:23.170Z,45.99
2019-02-23T14:13:37.133Z,42.94
2019-02-23T14:16:43.247Z,39.35
2019-02-23T14:19:58.104Z,37.12
2019-02-23T14:23:07.175Z,32.77
2019-02-23T14:26:12.897Z,30.96
2019-02-23T14:29:41.522Z,29.56
2019-02-23T14:32:47.424Z,30.09
2019-02-23T14:35:34.946Z,29.91
2019-02-23T14:38:41.190Z,29.56
2019-02-23T14:41:42.773Z,28.89
2019-02-23T14:44:50.810Z,27.37
2019-02-23T14:47:51.339Z,26.35
2019-02-23T14:51:13.800Z,25.32
2019-02-23T14:54:09.661Z,25.16
2019-02-23T14:57:00.211Z,24.71
2019-02-23T14:59:54.929Z,23.19
2019-02-23T15:03:06.646Z,23.30
2019-02-23T15:05:58.723Z,23.71
2019-02-23T15:09:13.734Z,24.41
2019-02-23T15:12:21.694Z,23.31
2019-02-23T15:15:20.706Z,23.66
2019-02-23T15:18:38.495Z,23.75
2019-02-23T15:22:03.701Z,24.32
2019-02-23T15:25:27.063Z,24.62
2019-02-23T15:28:41.041Z,24.48
2019-02-23T15:31:41.347Z,25.66
2019-02-23T15:34:38.078Z,26.99
2019-02-23T15:37:39.206Z,27.77
2019-02-23T15:40:43.690Z,28.45
2019-02-23T15:43:43.837Z,29.52
2019-02-23T15:47:03.672Z,31.16
2019-02-23T15:49:35.610Z,31.70
2019-02-23T15:52:07.646Z,31.31
2019-02-23T15:54:38.311Z,30.88
2019-02-23T15:57:08.329Z,30.17
2019-02-23T15:59:38.337Z,29.28
2019-02-23T16:02:08.553Z,29.18
2019-02-23T16:04:38.694Z,30.18
2019-02-23T16:07:08.917Z,31.07
2019-02-23T16:09:39.074Z,31.11
2019-02-23T16:12:09.000Z,32.15
2019-02-23T16:14:38.924Z,33.48
2019-02-23T16:17:09.044Z,34.38
2019-02-23T16:19:38.995Z,35.62
2019-02-23T16:22:08.936Z,36.69
2019-02-23T16:24:38.913Z,38.35
2019-02-23T16:27:08.897Z,39.48
2019-02-23T16:29:39.236Z,40.57
2019-02-23T16:32:09.634Z,41.35
2019-02-23T16:34:39.740Z,42.44
2019-02-23T16:37:09.828Z,43.31
2019-02-23T16:39:40.661Z,44.19
2019-02-23T16:42:12.092Z,44.97
2019-02-23T16:44:42.013Z,45.82
2019-02-23T16:47:12.457Z,46.60
2019-02-23T16:49:42.444Z,47.46
2019-02-23T16:52:12.456Z,48.21
2019-02-23T16:54:42.489Z,48.92
2019-02-23T16:57:12.536Z,49.64
2019-02-23T16:59:42.561Z,50.29
2019-02-23T17:02:12.566Z,51.05
2019-02-23T17:04:53.035Z,51.81
2019-02-23T17:07:14.169Z,52.43
2019-02-23T17:09:44.172Z,53.08
2019-02-23T17:12:14.973Z,53.75
2019-02-23T17:14:44.824Z,54.31
2019-02-23T17:17:14.905Z,54.92
2019-02-23T17:19:44.859Z,55.52
2019-02-23T17:22:15.245Z,56.15
2019-02-23T17:24:45.228Z,56.71
2019-02-23T17:27:15.219Z,57.23
2019-02-23T17:29:45.135Z,57.78
2019-02-23T17:32:15.035Z,58.40
2019-02-23T17:34:45.060Z,58.96
2019-02-23T17:37:15.079Z,59.61
2019-02-23T17:39:45.071Z,60.09
2019-02-23T17:42:27.360Z,60.60
2019-02-23T17:44:46.853Z,60.81
2019-02-23T17:47:16.887Z,61.35
2019-02-23T17:49:46.854Z,61.64
2019-02-23T17:52:17.775Z,62.14
2019-02-23T17:54:47.980Z,62.40
2019-02-23T17:57:20.312Z,62.68
2019-02-23T17:59:50.210Z,63.03
2019-02-23T18:02:20.391Z,63.51
2019-02-23T18:04:50.432Z,63.87
2019-02-23T18:07:20.532Z,64.12
2019-02-23T18:09:51.778Z,64.34
2019-02-23T18:12:21.647Z,64.72
2019-02-23T18:14:51.676Z,64.99
2019-02-23T18:17:21.931Z,65.22
2019-02-23T18:19:51.918Z,65.57
2019-02-23T18:22:22.091Z,65.95
2019-02-23T18:24:52.207Z,66.12
2019-02-23T18:27:22.280Z,66.28
2019-02-23T18:29:53.213Z,66.42
2019-02-23T18:32:23.283Z,66.63
2019-02-23T18:34:53.765Z,66.86
2019-02-23T18:37:24.336Z,67.07
2019-02-23T18:39:54.375Z,67.41
2019-02-23T18:42:24.446Z,67.71
2019-02-23T18:44:54.425Z,67.88
2019-02-23T18:47:24.457Z,68.03
2019-02-23T18:49:54.476Z,68.31
2019-02-23T18:52:24.583Z,68.81
2019-02-23T18:54:54.579Z,68.85
2019-02-23T18:57:24.561Z,69.05
2019-02-23T18:59:54.733Z,69.29
2019-02-23T19:02:24.773Z,69.36
2019-02-23T19:04:54.765Z,69.51
2019-02-23T19:07:24.804Z,69.67
2019-02-23T19:09:54.855Z,69.72
2019-02-23T19:12:24.834Z,69.99
2019-02-23T19:14:54.858Z,70.06
2019-02-23T19:17:24.919Z,70.25
2019-02-23T19:19:55.120Z,70.58
2019-02-23T19:22:25.333Z,70.83
2019-02-23T19:24:55.330Z,71.04
2019-02-23T19:27:25.341Z,71.01
2019-02-23T19:29:55.358Z,71.23
2019-02-23T19:32:25.258Z,71.42
2019-02-23T19:34:55.163Z,71.61
2019-02-23T19:37:25.243Z,71.81
2019-02-23T19:39:55.236Z,72.03
2019-02-23T19:42:26.712Z,72.27
2019-02-23T19:44:56.675Z,72.40
2019-02-23T19:47:29.835Z,72.62
2019-02-23T19:50:20.568Z,72.98
2019-02-23T19:52:50.579Z,73.04
2019-02-23T19:55:20.733Z,73.26
2019-02-23T19:57:50.829Z,73.45
2019-02-23T20:00:23.277Z,73.63
2019-02-23T20:02:56.110Z,74.00
2019-02-23T20:05:25.995Z,74.42
2019-02-23T20:07:56.196Z,74.47
2019-02-23T20:10:26.139Z,74.70
2019-02-23T20:12:56.213Z,74.83
2019-02-23T20:15:26.219Z,74.92
2019-02-23T20:17:56.408Z,75.12
2019-02-23T20:20:26.459Z,75.41
2019-02-23T20:22:56.410Z,75.64
2019-02-23T20:25:26.348Z,75.75
2019-02-23T20:27:56.358Z,75.85
2019-02-23T20:30:26.439Z,75.96
2019-02-23T20:32:56.455Z,76.21
2019-02-23T20:35:26.397Z,76.51
2019-02-23T20:37:56.585Z,76.43
2019-02-23T20:40:26.651Z,76.61
2019-02-23T20:42:56.638Z,76.72
2019-02-23T20:45:26.661Z,76.67
2019-02-23T20:47:56.750Z,76.76
2019-02-23T20:50:26.871Z,76.72
2019-02-23T20:52:56.855Z,76.77
2019-02-23T20:55:26.916Z,76.83
2019-02-23T20:57:56.909Z,76.64
2019-02-23T21:00:26.891Z,76.69
2019-02-23T21:02:56.955Z,76.84
2019-02-23T21:05:27.224Z,77.03
2019-02-23T21:07:57.103Z,77.10
2019-02-23T21:10:27.643Z,77.37
2019-02-23T21:12:57.983Z,77.46
2019-02-23T21:15:27.966Z,77.55
2019-02-23T21:17:57.840Z,77.53
2019-02-23T21:20:27.967Z,77.54
2019-02-23T21:22:57.868Z,77.56
2019-02-23T21:25:27.962Z,77.73
2019-02-23T21:27:57.800Z,77.81
2019-02-23T21:30:27.791Z,77.91
2019-02-23T21:32:58.664Z,78.08
2019-02-23T21:35:28.684Z,78.37
2019-02-23T21:37:58.907Z,78.47
2019-02-23T21:40:28.762Z,78.48
2019-02-23T21:42:58.525Z,78.50
2019-02-23T21:45:28.443Z,78.82
2019-02-23T21:47:58.403Z,79.03
2019-02-23T21:50:28.557Z,78.90
2019-02-23T21:52:58.549Z,78.98
2019-02-23T21:55:28.557Z,79.18
2019-02-23T21:57:58.599Z,79.61
2019-02-23T22:00:28.480Z,79.71
2019-02-23T22:02:58.361Z,79.87
2019-02-23T22:05:28.163Z,80.17
2019-02-23T22:07:58.079Z,80.12
2019-02-23T22:10:27.868Z,80.14
2019-02-23T22:12:58.073Z,80.28
2019-02-23T22:15:28.217Z,80.50
2019-02-23T22:17:58.030Z,80.58
2019-02-23T22:20:27.855Z,80.67
2019-02-23T22:22:57.670Z,81.06
2019-02-23T22:25:27.200Z,81.12
2019-02-23T22:27:57.334Z,81.20
2019-02-23T22:30:26.984Z,81.42
2019-02-23T22:32:56.505Z,81.59
2019-02-23T22:35:26.047Z,81.75
2019-02-23T22:37:55.811Z,81.67
2019-02-23T22:40:25.866Z,81.45
2019-02-23T22:42:55.448Z,81.39
2019-02-23T22:45:25.352Z,81.47
2019-02-23T22:47:54.876Z,81.56
2019-02-23T22:50:24.516Z,81.54
2019-02-23T22:52:54.036Z,81.77
2019-02-23T22:55:23.535Z,81.86
2019-02-23T22:57:53.088Z,81.93
2019-02-23T23:00:25.976Z,82.04
2019-02-23T23:02:55.729Z,82.04
2019-02-23T23:05:26.215Z,82.17
2019-02-23T23:07:55.675Z,82.14
2019-02-23T23:10:26.037Z,82.28
2019-02-23T23:12:55.579Z,82.33
2019-02-23T23:15:25.084Z,82.24
2019-02-23T23:17:54.677Z,82.12
2019-02-23T23:20:24.398Z,82.23
2019-02-23T23:22:56.797Z,82.38
2019-02-23T23:25:26.397Z,82.40
2019-02-23T23:27:56.377Z,82.52
2019-02-23T23:30:25.888Z,82.45
2019-02-23T23:32:55.480Z,82.39
2019-02-23T23:35:25.579Z,82.49
2019-02-23T23:37:55.083Z,82.75
2019-02-23T23:40:24.690Z,82.86
2019-02-23T23:42:58.117Z,82.98
2019-02-23T23:45:25.717Z,83.16
2019-02-23T23:47:55.677Z,83.19
2019-02-23T23:50:25.209Z,83.05
2019-02-23T23:52:54.977Z,82.93
2019-02-23T23:55:24.746Z,82.97
2019-02-23T23:57:58.345Z,83.07
